OCO133K EBCI-EBCI
Flight info
| Callsign | OCO133K |
|---|---|
| Flight time | 0h 26m |
| Altitude | 8000 |
| Route | EBCI EBCI |
| Aircraft | DA40/L-SBDGRY/S |
Departure
| Time | 2026-04-29 18:53 |
|---|---|
| Airport | Brussels South Charleroi Airport (EBCI) |
Arrival
| Time | 2026-04-29 19:20 |
|---|---|
| Airport | Brussels South Charleroi Airport (EBCI) |
| Time | Latitude | Longitude | Altitude | Speed | Heading |
|---|---|---|---|---|---|
| 2026-04-29 18:34 | 50.45975 | 4.45976 | 605 ft | 0 kts | 245° |
| 2026-04-29 18:47 | 50.45965 | 4.45950 | 617 ft | 0 kts | 239° |
| 2026-04-29 18:47 | 50.45964 | 4.45947 | 617 ft | 2 kts | 248° |
| 2026-04-29 18:47 | 50.45974 | 4.45883 | 618 ft | 7 kts | 321° |
| 2026-04-29 18:48 | 50.46027 | 4.45838 | 618 ft | 1 kts | 273° |
| 2026-04-29 18:48 | 50.46017 | 4.45806 | 618 ft | 10 kts | 246° |
| 2026-04-29 18:48 | 50.45979 | 4.45676 | 618 ft | 15 kts | 245° |
| 2026-04-29 18:48 | 50.45945 | 4.45535 | 624 ft | 5 kts | 286° |
| 2026-04-29 18:49 | 50.45946 | 4.45532 | 624 ft | 1 kts | 291° |
| 2026-04-29 18:49 | 50.45960 | 4.45510 | 623 ft | 0 kts | 336° |
| 2026-04-29 18:52 | 50.45964 | 4.45506 | 620 ft | 4 kts | 335° |
| 2026-04-29 18:52 | 50.46030 | 4.45475 | 625 ft | 11 kts | 17° |
| 2026-04-29 18:52 | 50.46093 | 4.45654 | 620 ft | 42 kts | 64° |
| 2026-04-29 18:52 | 50.46272 | 4.46264 | 699 ft | 73 kts | 62° |
| 2026-04-29 18:53 | 50.46507 | 4.47020 | 902 ft | 80 kts | 66° |
| 2026-04-29 18:53 | 50.47005 | 4.47458 | 1091 ft | 105 kts | 2° |
| 2026-04-29 18:53 | 50.47673 | 4.46815 | 1231 ft | 118 kts | 317° |
| 2026-04-29 18:53 | 50.47674 | 4.45558 | 1352 ft | 125 kts | 236° |
| 2026-04-29 18:54 | 50.47292 | 4.44347 | 1476 ft | 124 kts | 239° |
| 2026-04-29 18:54 | 50.46953 | 4.43110 | 1527 ft | 125 kts | 243° |
| 2026-04-29 18:54 | 50.46595 | 4.41864 | 1513 ft | 126 kts | 242° |
| 2026-04-29 18:54 | 50.46223 | 4.40628 | 1523 ft | 123 kts | 238° |
| 2026-04-29 18:55 | 50.45857 | 4.39409 | 1512 ft | 125 kts | 238° |
| 2026-04-29 18:55 | 50.45385 | 4.38417 | 1512 ft | 97 kts | 190° |
| 2026-04-29 18:55 | 50.44816 | 4.38491 | 1413 ft | 80 kts | 146° |
| 2026-04-29 18:55 | 50.44324 | 4.38875 | 1368 ft | 75 kts | 122° |
| 2026-04-29 18:56 | 50.44297 | 4.39582 | 1365 ft | 73 kts | 63° |
| 2026-04-29 18:56 | 50.44551 | 4.40292 | 1172 ft | 74 kts | 68° |
| 2026-04-29 18:56 | 50.44752 | 4.40987 | 1077 ft | 67 kts | 67° |
| 2026-04-29 18:56 | 50.44920 | 4.41608 | 962 ft | 54 kts | 67° |
| 2026-04-29 18:57 | 50.45079 | 4.42151 | 961 ft | 56 kts | 65° |
| 2026-04-29 18:57 | 50.45249 | 4.42738 | 871 ft | 61 kts | 65° |
| 2026-04-29 18:57 | 50.45426 | 4.43350 | 771 ft | 62 kts | 65° |
| 2026-04-29 18:57 | 50.45605 | 4.43972 | 698 ft | 63 kts | 65° |
| 2026-04-29 18:58 | 50.45782 | 4.44585 | 637 ft | 58 kts | 64° |
| 2026-04-29 18:58 | 50.45947 | 4.45140 | 650 ft | 66 kts | 67° |
| 2026-04-29 18:58 | 50.46124 | 4.45838 | 857 ft | 72 kts | 62° |
| 2026-04-29 18:58 | 50.46387 | 4.46570 | 1064 ft | 81 kts | 63° |
| 2026-04-29 18:59 | 50.46906 | 4.46983 | 1209 ft | 111 kts | 355° |
| 2026-04-29 18:59 | 50.47577 | 4.46288 | 1489 ft | 119 kts | 323° |
| 2026-04-29 18:59 | 50.47797 | 4.44951 | 1527 ft | 135 kts | 256° |
| 2026-04-29 18:59 | 50.47558 | 4.43586 | 1638 ft | 133 kts | 274° |
| 2026-04-29 19:00 | 50.48040 | 4.42493 | 1561 ft | 120 kts | 349° |
| 2026-04-29 19:00 | 50.48711 | 4.42666 | 1535 ft | 89 kts | 59° |
| 2026-04-29 19:00 | 50.48636 | 4.43482 | 1509 ft | 93 kts | 135° |
| 2026-04-29 19:00 | 50.47949 | 4.43473 | 1510 ft | 116 kts | 197° |
| 2026-04-29 19:01 | 50.47422 | 4.42449 | 1575 ft | 126 kts | 243° |
| 2026-04-29 19:01 | 50.47094 | 4.41208 | 1594 ft | 118 kts | 244° |
| 2026-04-29 19:01 | 50.46765 | 4.40038 | 1524 ft | 115 kts | 229° |
| 2026-04-29 19:01 | 50.46116 | 4.39615 | 1407 ft | 96 kts | 160° |
| 2026-04-29 19:02 | 50.45495 | 4.39919 | 1290 ft | 96 kts | 150° |
| 2026-04-29 19:02 | 50.45070 | 4.40132 | 1191 ft | 97 kts | 144° |
| 2026-04-29 19:02 | 50.44786 | 4.41091 | 1056 ft | 70 kts | 76° |
| 2026-04-29 19:02 | 50.44981 | 4.41813 | 975 ft | 74 kts | 66° |
| 2026-04-29 19:03 | 50.45191 | 4.42526 | 914 ft | 60 kts | 64° |
| 2026-04-29 19:03 | 50.45371 | 4.43164 | 807 ft | 67 kts | 70° |
| 2026-04-29 19:03 | 50.45569 | 4.43843 | 738 ft | 69 kts | 65° |
| 2026-04-29 19:03 | 50.45764 | 4.44524 | 640 ft | 63 kts | 64° |
| 2026-04-29 19:04 | 50.45930 | 4.45087 | 630 ft | 66 kts | 65° |
| 2026-04-29 19:04 | 50.46138 | 4.45816 | 809 ft | 74 kts | 64° |
| 2026-04-29 19:04 | 50.46358 | 4.46537 | 1077 ft | 76 kts | 67° |
| 2026-04-29 19:04 | 50.46578 | 4.47276 | 1338 ft | 78 kts | 68° |
| 2026-04-29 19:05 | 50.46836 | 4.48090 | 1522 ft | 83 kts | 69° |
| 2026-04-29 19:05 | 50.47119 | 4.48948 | 1573 ft | 97 kts | 67° |
| 2026-04-29 19:05 | 50.47157 | 4.49923 | 1593 ft | 104 kts | 120° |
| 2026-04-29 19:05 | 50.46423 | 4.50331 | 1540 ft | 119 kts | 161° |
| 2026-04-29 19:06 | 50.45606 | 4.50377 | 1532 ft | 121 kts | 181° |
| 2026-04-29 19:06 | 50.44907 | 4.49537 | 1479 ft | 138 kts | 239° |
| 2026-04-29 19:06 | 50.44290 | 4.46698 | 1484 ft | 137 kts | 248° |
| 2026-04-29 19:07 | 50.43696 | 4.45719 | 1484 ft | 114 kts | 182° |
| 2026-04-29 19:07 | 50.43234 | 4.45834 | 1485 ft | 95 kts | 133° |
| 2026-04-29 19:07 | 50.43263 | 4.46890 | 1483 ft | 92 kts | 38° |
| 2026-04-29 19:07 | 50.43924 | 4.46666 | 1485 ft | 117 kts | 324° |
| 2026-04-29 19:08 | 50.44117 | 4.45408 | 1488 ft | 126 kts | 253° |
| 2026-04-29 19:08 | 50.43845 | 4.44070 | 1505 ft | 133 kts | 252° |
| 2026-04-29 19:08 | 50.43575 | 4.42649 | 1507 ft | 138 kts | 250° |
| 2026-04-29 19:08 | 50.43292 | 4.41202 | 1502 ft | 140 kts | 247° |
| 2026-04-29 19:09 | 50.42999 | 4.39745 | 1503 ft | 139 kts | 249° |
| 2026-04-29 19:09 | 50.42711 | 4.38298 | 1501 ft | 140 kts | 250° |
| 2026-04-29 19:09 | 50.42758 | 4.36811 | 1519 ft | 139 kts | 306° |
| 2026-04-29 19:09 | 50.43442 | 4.35974 | 1554 ft | 118 kts | 3° |
| 2026-04-29 19:10 | 50.43983 | 4.36509 | 1487 ft | 93 kts | 83° |
| 2026-04-29 19:10 | 50.43963 | 4.37578 | 1475 ft | 100 kts | 94° |
| 2026-04-29 19:10 | 50.44079 | 4.38645 | 1449 ft | 98 kts | 77° |
| 2026-04-29 19:10 | 50.44346 | 4.39630 | 1336 ft | 99 kts | 69° |
| 2026-04-29 19:11 | 50.44626 | 4.40608 | 1143 ft | 95 kts | 66° |
| 2026-04-29 19:11 | 50.44889 | 4.41497 | 1021 ft | 80 kts | 66° |
| 2026-04-29 19:11 | 50.45094 | 4.42220 | 935 ft | 67 kts | 68° |
| 2026-04-29 19:11 | 50.45287 | 4.42861 | 828 ft | 61 kts | 69° |
| 2026-04-29 19:12 | 50.45462 | 4.43474 | 762 ft | 62 kts | 63° |
| 2026-04-29 19:12 | 50.45639 | 4.44098 | 674 ft | 61 kts | 64° |
| 2026-04-29 19:12 | 50.45807 | 4.44673 | 630 ft | 51 kts | 64° |
| 2026-04-29 19:12 | 50.45911 | 4.45019 | 629 ft | 63 kts | 68° |
| 2026-04-29 19:13 | 50.46151 | 4.45940 | 913 ft | 69 kts | 68° |
| 2026-04-29 19:13 | 50.46413 | 4.46607 | 1156 ft | 76 kts | 53° |
| 2026-04-29 19:13 | 50.47027 | 4.46742 | 1188 ft | 115 kts | 342° |
| 2026-04-29 19:13 | 50.47683 | 4.46066 | 1379 ft | 107 kts | 339° |
| 2026-04-29 19:14 | 50.48304 | 4.45311 | 1442 ft | 124 kts | 310° |
| 2026-04-29 19:14 | 50.48445 | 4.43971 | 1537 ft | 127 kts | 250° |
| 2026-04-29 19:14 | 50.48296 | 4.42602 | 1552 ft | 134 kts | 288° |
| 2026-04-29 19:14 | 50.48899 | 4.41649 | 1532 ft | 121 kts | 358° |
| 2026-04-29 19:15 | 50.49582 | 4.41975 | 1499 ft | 98 kts | 62° |
| 2026-04-29 19:15 | 50.49543 | 4.42922 | 1500 ft | 99 kts | 125° |
| 2026-04-29 19:15 | 50.48823 | 4.43118 | 1490 ft | 124 kts | 190° |
| 2026-04-29 19:15 | 50.48227 | 4.42038 | 1500 ft | 141 kts | 243° |
| 2026-04-29 19:16 | 50.47847 | 4.40612 | 1497 ft | 141 kts | 242° |
| 2026-04-29 19:16 | 50.47454 | 4.39212 | 1498 ft | 142 kts | 243° |
| 2026-04-29 19:16 | 50.47019 | 4.37826 | 1492 ft | 138 kts | 230° |
| 2026-04-29 19:16 | 50.46303 | 4.37197 | 1483 ft | 103 kts | 162° |
| 2026-04-29 19:17 | 50.45658 | 4.37454 | 1483 ft | 95 kts | 154° |
| 2026-04-29 19:17 | 50.44994 | 4.37665 | 1489 ft | 99 kts | 155° |
| 2026-04-29 19:17 | 50.44316 | 4.37968 | 1455 ft | 101 kts | 137° |
| 2026-04-29 19:17 | 50.43978 | 4.38721 | 1511 ft | 76 kts | 86° |
| 2026-04-29 19:18 | 50.44269 | 4.39424 | 1462 ft | 76 kts | 65° |
| 2026-04-29 19:18 | 50.44430 | 4.39909 | 1365 ft | 77 kts | 71° |
| 2026-04-29 19:18 | 50.44709 | 4.40943 | 1157 ft | 77 kts | 68° |
| 2026-04-29 19:18 | 50.44895 | 4.41542 | 1064 ft | 53 kts | 67° |
| 2026-04-29 19:19 | 50.45042 | 4.42060 | 902 ft | 56 kts | 67° |
| 2026-04-29 19:19 | 50.45226 | 4.42651 | 852 ft | 59 kts | 72° |
| 2026-04-29 19:19 | 50.45395 | 4.43256 | 792 ft | 65 kts | 67° |
| 2026-04-29 19:19 | 50.45583 | 4.43905 | 735 ft | 66 kts | 65° |
| 2026-04-29 19:20 | 50.45765 | 4.44529 | 631 ft | 59 kts | 64° |
| 2026-04-29 19:20 | 50.45919 | 4.45052 | 618 ft | 44 kts | 65° |
| 2026-04-29 19:20 | 50.46012 | 4.45382 | 617 ft | 13 kts | 66° |
| 2026-04-29 19:20 | 50.46010 | 4.45475 | 612 ft | 3 kts | 158° |
| 2026-04-29 19:21 | 50.45967 | 4.45509 | 611 ft | 10 kts | 159° |
| 2026-04-29 19:21 | 50.45950 | 4.45520 | 615 ft | 0 kts | 148° |
| 2026-04-29 19:22 | 50.45946 | 4.45563 | 610 ft | 6 kts | 68° |
| 2026-04-29 19:22 | 50.45969 | 4.45642 | 609 ft | 10 kts | 65° |
| 2026-04-29 19:22 | 50.46001 | 4.45750 | 608 ft | 12 kts | 66° |
| 2026-04-29 19:22 | 50.46007 | 4.45799 | 608 ft | 1 kts | 141° |
| 2026-04-29 19:23 | 50.45987 | 4.45815 | 608 ft | 4 kts | 158° |
| 2026-04-29 19:23 | 50.45953 | 4.45842 | 608 ft | 4 kts | 141° |
| 2026-04-29 19:23 | 50.45951 | 4.45848 | 608 ft | 1 kts | 84° |
| 2026-04-29 19:23 | 50.45959 | 4.45878 | 608 ft | 0 kts | 66° |
| 2026-04-29 19:24 | 50.45960 | 4.45880 | 608 ft | 0 kts | 66° |
| 2026-04-29 19:24 | 50.45960 | 4.45881 | 608 ft | 0 kts | 62° |